sensor_id;sensor_type;location;lat;lon;timestamp;P1;durP1;ratioP1;P2;durP2;ratioP2
8540;SDS011;4308;51.294;6.590;2023-07-30T00:01:16;4.83;;;3.40;;
8540;SDS011;4308;51.294;6.590;2023-07-30T00:03:44;5.93;;;3.60;;
8540;SDS011;4308;51.294;6.590;2023-07-30T00:06:12;9.10;;;4.00;;
8540;SDS011;4308;51.294;6.590;2023-07-30T00:08:39;8.17;;;3.73;;
8540;SDS011;4308;51.294;6.590;2023-07-30T00:11:07;5.93;;;3.37;;
8540;SDS011;4308;51.294;6.590;2023-07-30T00:13:34;11.17;;;4.00;;
8540;SDS011;4308;51.294;6.590;2023-07-30T00:16:02;6.47;;;3.63;;
8540;SDS011;4308;51.294;6.590;2023-07-30T00:18:30;5.20;;;3.50;;
8540;SDS011;4308;51.294;6.590;2023-07-30T00:20:57;6.87;;;4.00;;
8540;SDS011;4308;51.294;6.590;2023-07-30T00:23:25;8.17;;;3.57;;
8540;SDS011;4308;51.294;6.590;2023-07-30T00:25:53;6.57;;;3.70;;
8540;SDS011;4308;51.294;6.590;2023-07-30T00:28:20;6.63;;;3.70;;
8540;SDS011;4308;51.294;6.590;2023-07-30T00:30:48;6.07;;;3.60;;
8540;SDS011;4308;51.294;6.590;2023-07-30T00:33:16;6.80;;;3.77;;
8540;SDS011;4308;51.294;6.590;2023-07-30T00:35:43;5.70;;;3.83;;
8540;SDS011;4308;51.294;6.590;2023-07-30T00:38:11;7.27;;;3.57;;
8540;SDS011;4308;51.294;6.590;2023-07-30T00:40:41;6.73;;;3.93;;
8540;SDS011;4308;51.294;6.590;2023-07-30T00:43:09;7.77;;;3.77;;
8540;SDS011;4308;51.294;6.590;2023-07-30T00:45:38;5.43;;;3.60;;
8540;SDS011;4308;51.294;6.590;2023-07-30T00:48:07;8.93;;;3.70;;
8540;SDS011;4308;51.294;6.590;2023-07-30T00:50:34;8.40;;;4.33;;
8540;SDS011;4308;51.294;6.590;2023-07-30T00:53:02;8.90;;;3.97;;
8540;SDS011;4308;51.294;6.590;2023-07-30T00:55:30;9.20;;;4.10;;
8540;SDS011;4308;51.294;6.590;2023-07-30T00:57:57;6.13;;;3.70;;
8540;SDS011;4308;51.294;6.590;2023-07-30T01:00:25;5.70;;;3.93;;
8540;SDS011;4308;51.294;6.590;2023-07-30T01:02:53;6.97;;;3.90;;
8540;SDS011;4308;51.294;6.590;2023-07-30T01:05:21;8.87;;;4.00;;
8540;SDS011;4308;51.294;6.590;2023-07-30T01:07:48;7.43;;;3.70;;
8540;SDS011;4308;51.294;6.590;2023-07-30T01:10:16;9.80;;;4.20;;
8540;SDS011;4308;51.294;6.590;2023-07-30T01:12:44;7.73;;;4.10;;
8540;SDS011;4308;51.294;6.590;2023-07-30T01:15:12;7.90;;;3.87;;
8540;SDS011;4308;51.294;6.590;2023-07-30T01:17:40;7.97;;;4.20;;
8540;SDS011;4308;51.294;6.590;2023-07-30T01:20:08;8.23;;;4.63;;
8540;SDS011;4308;51.294;6.590;2023-07-30T01:22:37;7.70;;;4.13;;
8540;SDS011;4308;51.294;6.590;2023-07-30T01:25:05;5.83;;;4.43;;
8540;SDS011;4308;51.294;6.590;2023-07-30T01:27:35;13.23;;;4.57;;
8540;SDS011;4308;51.294;6.590;2023-07-30T01:32:33;7.43;;;4.37;;
8540;SDS011;4308;51.294;6.590;2023-07-30T01:35:00;7.87;;;4.40;;
8540;SDS011;4308;51.294;6.590;2023-07-30T01:37:29;7.27;;;4.37;;
8540;SDS011;4308;51.294;6.590;2023-07-30T01:39:57;12.30;;;4.77;;
8540;SDS011;4308;51.294;6.590;2023-07-30T01:42:29;7.70;;;4.10;;
8540;SDS011;4308;51.294;6.590;2023-07-30T01:44:57;5.93;;;4.03;;
8540;SDS011;4308;51.294;6.590;2023-07-30T01:47:24;8.30;;;3.90;;
8540;SDS011;4308;51.294;6.590;2023-07-30T01:49:52;7.03;;;4.90;;
8540;SDS011;4308;51.294;6.590;2023-07-30T01:52:20;11.63;;;4.47;;
8540;SDS011;4308;51.294;6.590;2023-07-30T01:54:47;8.77;;;4.80;;
8540;SDS011;4308;51.294;6.590;2023-07-30T01:57:15;6.20;;;4.33;;
8540;SDS011;4308;51.294;6.590;2023-07-30T01:59:43;8.57;;;4.40;;
8540;SDS011;4308;51.294;6.590;2023-07-30T02:02:10;7.40;;;4.63;;
8540;SDS011;4308;51.294;6.590;2023-07-30T02:04:38;6.60;;;4.73;;
8540;SDS011;4308;51.294;6.590;2023-07-30T02:07:05;10.33;;;4.70;;
8540;SDS011;4308;51.294;6.590;2023-07-30T02:09:33;9.67;;;4.93;;
8540;SDS011;4308;51.294;6.590;2023-07-30T02:12:00;8.27;;;4.87;;
8540;SDS011;4308;51.294;6.590;2023-07-30T02:14:28;6.53;;;4.50;;
8540;SDS011;4308;51.294;6.590;2023-07-30T02:16:56;10.47;;;4.90;;
8540;SDS011;4308;51.294;6.590;2023-07-30T02:19:23;9.97;;;4.53;;
8540;SDS011;4308;51.294;6.590;2023-07-30T02:21:51;9.43;;;5.30;;
8540;SDS011;4308;51.294;6.590;2023-07-30T02:24:19;6.60;;;4.47;;
8540;SDS011;4308;51.294;6.590;2023-07-30T02:26:46;8.13;;;4.90;;
8540;SDS011;4308;51.294;6.590;2023-07-30T02:29:14;10.53;;;4.83;;
8540;SDS011;4308;51.294;6.590;2023-07-30T02:31:41;10.80;;;4.87;;
8540;SDS011;4308;51.294;6.590;2023-07-30T02:34:09;7.40;;;4.10;;
8540;SDS011;4308;51.294;6.590;2023-07-30T02:36:37;10.97;;;4.73;;
8540;SDS011;4308;51.294;6.590;2023-07-30T02:39:04;10.10;;;3.97;;
8540;SDS011;4308;51.294;6.590;2023-07-30T02:41:32;7.37;;;4.37;;
8540;SDS011;4308;51.294;6.590;2023-07-30T02:43:59;10.50;;;4.50;;
8540;SDS011;4308;51.294;6.590;2023-07-30T02:46:27;7.00;;;4.30;;
8540;SDS011;4308;51.294;6.590;2023-07-30T02:48:55;10.53;;;4.50;;
8540;SDS011;4308;51.294;6.590;2023-07-30T02:51:22;5.53;;;4.13;;
8540;SDS011;4308;51.294;6.590;2023-07-30T02:53:51;8.90;;;4.93;;
8540;SDS011;4308;51.294;6.590;2023-07-30T02:56:19;11.47;;;4.80;;
8540;SDS011;4308;51.294;6.590;2023-07-30T02:58:46;7.23;;;4.70;;
8540;SDS011;4308;51.294;6.590;2023-07-30T03:01:14;6.87;;;4.20;;
8540;SDS011;4308;51.294;6.590;2023-07-30T03:03:42;8.40;;;5.20;;
8540;SDS011;4308;51.294;6.590;2023-07-30T03:06:09;10.00;;;5.10;;
8540;SDS011;4308;51.294;6.590;2023-07-30T03:08:37;10.53;;;5.33;;
8540;SDS011;4308;51.294;6.590;2023-07-30T03:11:04;8.03;;;5.30;;
8540;SDS011;4308;51.294;6.590;2023-07-30T03:13:32;7.93;;;5.20;;
8540;SDS011;4308;51.294;6.590;2023-07-30T03:16:03;11.37;;;5.00;;
8540;SDS011;4308;51.294;6.590;2023-07-30T03:18:30;12.87;;;5.20;;
8540;SDS011;4308;51.294;6.590;2023-07-30T03:21:02;11.50;;;4.80;;
8540;SDS011;4308;51.294;6.590;2023-07-30T03:23:30;15.67;;;5.27;;
8540;SDS011;4308;51.294;6.590;2023-07-30T03:25:58;9.20;;;5.20;;
8540;SDS011;4308;51.294;6.590;2023-07-30T03:28:28;11.47;;;4.87;;
8540;SDS011;4308;51.294;6.590;2023-07-30T03:30:56;10.93;;;4.73;;
8540;SDS011;4308;51.294;6.590;2023-07-30T03:33:23;12.07;;;5.30;;
8540;SDS011;4308;51.294;6.590;2023-07-30T03:35:51;12.77;;;4.40;;
8540;SDS011;4308;51.294;6.590;2023-07-30T03:38:19;8.53;;;4.50;;
8540;SDS011;4308;51.294;6.590;2023-07-30T03:40:46;9.77;;;4.80;;
8540;SDS011;4308;51.294;6.590;2023-07-30T03:43:14;10.73;;;4.47;;
8540;SDS011;4308;51.294;6.590;2023-07-30T03:45:41;7.60;;;4.57;;
8540;SDS011;4308;51.294;6.590;2023-07-30T03:48:09;10.13;;;5.07;;
8540;SDS011;4308;51.294;6.590;2023-07-30T03:50:37;10.00;;;4.20;;
8540;SDS011;4308;51.294;6.590;2023-07-30T03:53:04;11.13;;;4.37;;
8540;SDS011;4308;51.294;6.590;2023-07-30T03:55:32;7.97;;;4.43;;
8540;SDS011;4308;51.294;6.590;2023-07-30T03:57:59;13.37;;;4.30;;
8540;SDS011;4308;51.294;6.590;2023-07-30T04:00:27;12.87;;;5.00;;
8540;SDS011;4308;51.294;6.590;2023-07-30T04:02:55;9.70;;;4.63;;
8540;SDS011;4308;51.294;6.590;2023-07-30T04:05:22;9.03;;;4.30;;
8540;SDS011;4308;51.294;6.590;2023-07-30T04:07:50;10.10;;;4.37;;
8540;SDS011;4308;51.294;6.590;2023-07-30T04:10:18;8.70;;;4.27;;
8540;SDS011;4308;51.294;6.590;2023-07-30T04:12:45;8.53;;;4.17;;
8540;SDS011;4308;51.294;6.590;2023-07-30T04:15:14;11.27;;;4.50;;
8540;SDS011;4308;51.294;6.590;2023-07-30T04:17:41;9.30;;;4.47;;
8540;SDS011;4308;51.294;6.590;2023-07-30T04:20:09;10.37;;;4.57;;
8540;SDS011;4308;51.294;6.590;2023-07-30T04:22:37;9.43;;;4.10;;
8540;SDS011;4308;51.294;6.590;2023-07-30T04:25:05;11.40;;;4.47;;
8540;SDS011;4308;51.294;6.590;2023-07-30T04:27:32;8.40;;;3.53;;
8540;SDS011;4308;51.294;6.590;2023-07-30T04:30:00;9.30;;;3.80;;
8540;SDS011;4308;51.294;6.590;2023-07-30T04:32:28;9.63;;;3.97;;
8540;SDS011;4308;51.294;6.590;2023-07-30T04:34:55;10.90;;;4.10;;
8540;SDS011;4308;51.294;6.590;2023-07-30T04:37:23;10.90;;;4.07;;
8540;SDS011;4308;51.294;6.590;2023-07-30T04:39:50;10.00;;;4.00;;
8540;SDS011;4308;51.294;6.590;2023-07-30T04:42:18;8.50;;;3.67;;
8540;SDS011;4308;51.294;6.590;2023-07-30T04:44:46;10.23;;;3.70;;
8540;SDS011;4308;51.294;6.590;2023-07-30T04:47:13;9.30;;;4.27;;
8540;SDS011;4308;51.294;6.590;2023-07-30T04:49:41;8.63;;;4.33;;
8540;SDS011;4308;51.294;6.590;2023-07-30T04:52:09;8.50;;;3.80;;
8540;SDS011;4308;51.294;6.590;2023-07-30T04:54:36;8.67;;;3.97;;
8540;SDS011;4308;51.294;6.590;2023-07-30T04:57:04;12.43;;;4.20;;
8540;SDS011;4308;51.294;6.590;2023-07-30T04:59:32;11.77;;;3.70;;
8540;SDS011;4308;51.294;6.590;2023-07-30T05:01:59;10.80;;;3.70;;
8540;SDS011;4308;51.294;6.590;2023-07-30T05:04:27;10.30;;;3.77;;
8540;SDS011;4308;51.294;6.590;2023-07-30T05:06:55;12.27;;;3.80;;
8540;SDS011;4308;51.294;6.590;2023-07-30T05:09:22;10.60;;;3.43;;
8540;SDS011;4308;51.294;6.590;2023-07-30T05:11:50;8.47;;;3.87;;
8540;SDS011;4308;51.294;6.590;2023-07-30T05:14:18;10.83;;;3.40;;
8540;SDS011;4308;51.294;6.590;2023-07-30T05:16:45;11.63;;;3.50;;
8540;SDS011;4308;51.294;6.590;2023-07-30T05:19:15;6.67;;;2.47;;
8540;SDS011;4308;51.294;6.590;2023-07-30T05:21:43;9.07;;;2.93;;
8540;SDS011;4308;51.294;6.590;2023-07-30T05:24:11;9.83;;;3.10;;
8540;SDS011;4308;51.294;6.590;2023-07-30T05:26:38;8.63;;;2.60;;
8540;SDS011;4308;51.294;6.590;2023-07-30T05:29:06;10.43;;;3.20;;
8540;SDS011;4308;51.294;6.590;2023-07-30T05:31:33;7.83;;;2.27;;
8540;SDS011;4308;51.294;6.590;2023-07-30T05:34:01;6.80;;;2.50;;
8540;SDS011;4308;51.294;6.590;2023-07-30T05:36:29;6.03;;;2.30;;
8540;SDS011;4308;51.294;6.590;2023-07-30T05:38:56;10.70;;;2.53;;
8540;SDS011;4308;51.294;6.590;2023-07-30T05:41:24;7.40;;;2.60;;
8540;SDS011;4308;51.294;6.590;2023-07-30T05:43:51;6.47;;;2.10;;
8540;SDS011;4308;51.294;6.590;2023-07-30T05:46:19;7.70;;;2.40;;
8540;SDS011;4308;51.294;6.590;2023-07-30T05:48:47;7.07;;;2.07;;
8540;SDS011;4308;51.294;6.590;2023-07-30T05:51:14;10.40;;;2.30;;
8540;SDS011;4308;51.294;6.590;2023-07-30T05:53:42;9.43;;;2.30;;
8540;SDS011;4308;51.294;6.590;2023-07-30T05:56:09;4.83;;;1.90;;
8540;SDS011;4308;51.294;6.590;2023-07-30T05:58:37;5.93;;;2.03;;
8540;SDS011;4308;51.294;6.590;2023-07-30T06:01:04;8.97;;;2.33;;
8540;SDS011;4308;51.294;6.590;2023-07-30T06:03:32;6.07;;;2.50;;
8540;SDS011;4308;51.294;6.590;2023-07-30T06:06:01;6.33;;;2.10;;
8540;SDS011;4308;51.294;6.590;2023-07-30T06:08:28;7.03;;;2.07;;
8540;SDS011;4308;51.294;6.590;2023-07-30T06:11:00;7.27;;;2.20;;
8540;SDS011;4308;51.294;6.590;2023-07-30T06:13:27;5.70;;;2.37;;
8540;SDS011;4308;51.294;6.590;2023-07-30T06:15:55;6.67;;;1.90;;
8540;SDS011;4308;51.294;6.590;2023-07-30T06:18:23;5.50;;;2.00;;
8540;SDS011;4308;51.294;6.590;2023-07-30T06:20:50;6.03;;;2.17;;
8540;SDS011;4308;51.294;6.590;2023-07-30T06:23:18;7.73;;;2.20;;
8540;SDS011;4308;51.294;6.590;2023-07-30T06:25:45;5.83;;;2.07;;
8540;SDS011;4308;51.294;6.590;2023-07-30T06:28:13;8.00;;;2.43;;
8540;SDS011;4308;51.294;6.590;2023-07-30T06:30:41;6.43;;;1.87;;
8540;SDS011;4308;51.294;6.590;2023-07-30T06:33:08;7.83;;;2.10;;
8540;SDS011;4308;51.294;6.590;2023-07-30T06:35:36;4.50;;;2.00;;
8540;SDS011;4308;51.294;6.590;2023-07-30T06:38:05;4.43;;;1.80;;
8540;SDS011;4308;51.294;6.590;2023-07-30T06:40:33;11.00;;;2.17;;
8540;SDS011;4308;51.294;6.590;2023-07-30T06:43:00;6.20;;;1.80;;
8540;SDS011;4308;51.294;6.590;2023-07-30T06:45:28;8.40;;;2.40;;
8540;SDS011;4308;51.294;6.590;2023-07-30T06:47:55;10.10;;;2.60;;
8540;SDS011;4308;51.294;6.590;2023-07-30T06:50:23;8.00;;;2.57;;
8540;SDS011;4308;51.294;6.590;2023-07-30T06:52:51;11.63;;;3.13;;
8540;SDS011;4308;51.294;6.590;2023-07-30T06:55:18;6.00;;;2.10;;
8540;SDS011;4308;51.294;6.590;2023-07-30T06:57:46;7.40;;;2.37;;
8540;SDS011;4308;51.294;6.590;2023-07-30T07:00:14;8.43;;;2.10;;
8540;SDS011;4308;51.294;6.590;2023-07-30T07:02:42;5.10;;;2.17;;
8540;SDS011;4308;51.294;6.590;2023-07-30T07:05:10;11.53;;;2.50;;
8540;SDS011;4308;51.294;6.590;2023-07-30T07:07:37;8.03;;;2.63;;
8540;SDS011;4308;51.294;6.590;2023-07-30T07:10:05;8.93;;;2.63;;
8540;SDS011;4308;51.294;6.590;2023-07-30T07:12:33;9.53;;;2.90;;
8540;SDS011;4308;51.294;6.590;2023-07-30T07:15:00;8.10;;;2.30;;
8540;SDS011;4308;51.294;6.590;2023-07-30T07:17:28;11.77;;;3.00;;
8540;SDS011;4308;51.294;6.590;2023-07-30T07:19:56;6.40;;;2.33;;
8540;SDS011;4308;51.294;6.590;2023-07-30T07:22:24;6.50;;;2.60;;
8540;SDS011;4308;51.294;6.590;2023-07-30T07:24:52;7.57;;;2.50;;
8540;SDS011;4308;51.294;6.590;2023-07-30T07:27:19;12.33;;;2.67;;
8540;SDS011;4308;51.294;6.590;2023-07-30T07:29:47;10.00;;;3.03;;
8540;SDS011;4308;51.294;6.590;2023-07-30T07:32:15;12.33;;;3.13;;
8540;SDS011;4308;51.294;6.590;2023-07-30T07:34:45;10.67;;;2.90;;
8540;SDS011;4308;51.294;6.590;2023-07-30T07:37:13;11.53;;;3.33;;
8540;SDS011;4308;51.294;6.590;2023-07-30T07:39:41;10.50;;;2.80;;
8540;SDS011;4308;51.294;6.590;2023-07-30T07:42:09;8.90;;;3.03;;
8540;SDS011;4308;51.294;6.590;2023-07-30T07:44:36;11.10;;;3.23;;
8540;SDS011;4308;51.294;6.590;2023-07-30T07:47:04;8.23;;;3.30;;
8540;SDS011;4308;51.294;6.590;2023-07-30T07:49:32;8.67;;;3.10;;
8540;SDS011;4308;51.294;6.590;2023-07-30T07:51:59;11.17;;;3.00;;
8540;SDS011;4308;51.294;6.590;2023-07-30T07:54:27;11.20;;;3.37;;
8540;SDS011;4308;51.294;6.590;2023-07-30T07:56:54;9.57;;;2.77;;
8540;SDS011;4308;51.294;6.590;2023-07-30T07:59:23;15.63;;;3.17;;
8540;SDS011;4308;51.294;6.590;2023-07-30T08:01:50;11.70;;;3.63;;
8540;SDS011;4308;51.294;6.590;2023-07-30T08:04:18;11.73;;;3.43;;
8540;SDS011;4308;51.294;6.590;2023-07-30T08:06:46;9.00;;;3.30;;
8540;SDS011;4308;51.294;6.590;2023-07-30T08:09:14;13.13;;;3.30;;
8540;SDS011;4308;51.294;6.590;2023-07-30T08:11:41;16.13;;;4.07;;
8540;SDS011;4308;51.294;6.590;2023-07-30T08:14:09;11.03;;;3.20;;
8540;SDS011;4308;51.294;6.590;2023-07-30T08:16:36;9.37;;;3.20;;
8540;SDS011;4308;51.294;6.590;2023-07-30T08:19:04;9.80;;;3.43;;
8540;SDS011;4308;51.294;6.590;2023-07-30T08:21:32;10.37;;;3.20;;
8540;SDS011;4308;51.294;6.590;2023-07-30T08:23:59;13.87;;;3.40;;
8540;SDS011;4308;51.294;6.590;2023-07-30T08:26:27;14.83;;;3.40;;
8540;SDS011;4308;51.294;6.590;2023-07-30T08:28:54;15.40;;;3.47;;
8540;SDS011;4308;51.294;6.590;2023-07-30T08:31:22;13.83;;;3.30;;
8540;SDS011;4308;51.294;6.590;2023-07-30T08:33:50;11.90;;;3.70;;
8540;SDS011;4308;51.294;6.590;2023-07-30T08:36:18;12.00;;;3.17;;
8540;SDS011;4308;51.294;6.590;2023-07-30T08:38:48;13.03;;;3.70;;
8540;SDS011;4308;51.294;6.590;2023-07-30T08:41:15;10.33;;;3.13;;
8540;SDS011;4308;51.294;6.590;2023-07-30T08:43:44;14.17;;;3.20;;
8540;SDS011;4308;51.294;6.590;2023-07-30T08:46:14;8.97;;;2.97;;
8540;SDS011;4308;51.294;6.590;2023-07-30T08:48:42;13.27;;;3.77;;
8540;SDS011;4308;51.294;6.590;2023-07-30T08:51:12;6.20;;;2.60;;
8540;SDS011;4308;51.294;6.590;2023-07-30T08:53:40;10.23;;;3.53;;
8540;SDS011;4308;51.294;6.590;2023-07-30T08:56:09;11.03;;;3.37;;
8540;SDS011;4308;51.294;6.590;2023-07-30T08:58:36;8.57;;;2.83;;
8540;SDS011;4308;51.294;6.590;2023-07-30T09:01:07;15.10;;;3.37;;
8540;SDS011;4308;51.294;6.590;2023-07-30T09:03:37;8.90;;;3.03;;
8540;SDS011;4308;51.294;6.590;2023-07-30T09:06:06;10.93;;;3.43;;
8540;SDS011;4308;51.294;6.590;2023-07-30T09:08:34;9.73;;;3.43;;
8540;SDS011;4308;51.294;6.590;2023-07-30T09:11:09;13.60;;;3.23;;
8540;SDS011;4308;51.294;6.590;2023-07-30T09:13:40;10.90;;;3.00;;
8540;SDS011;4308;51.294;6.590;2023-07-30T09:16:08;12.00;;;2.83;;
8540;SDS011;4308;51.294;6.590;2023-07-30T09:18:46;8.37;;;2.87;;
8540;SDS011;4308;51.294;6.590;2023-07-30T09:21:16;9.83;;;3.20;;
8540;SDS011;4308;51.294;6.590;2023-07-30T09:23:46;12.00;;;3.17;;
8540;SDS011;4308;51.294;6.590;2023-07-30T09:26:14;14.30;;;3.00;;
8540;SDS011;4308;51.294;6.590;2023-07-30T09:28:41;9.53;;;3.03;;
8540;SDS011;4308;51.294;6.590;2023-07-30T09:31:09;10.07;;;3.17;;
8540;SDS011;4308;51.294;6.590;2023-07-30T09:33:48;8.57;;;2.70;;
8540;SDS011;4308;51.294;6.590;2023-07-30T09:36:18;10.57;;;2.73;;
8540;SDS011;4308;51.294;6.590;2023-07-30T09:38:46;10.00;;;3.67;;
8540;SDS011;4308;51.294;6.590;2023-07-30T09:41:13;10.53;;;3.00;;
8540;SDS011;4308;51.294;6.590;2023-07-30T09:43:41;12.67;;;2.83;;
8540;SDS011;4308;51.294;6.590;2023-07-30T09:46:09;8.63;;;2.57;;
8540;SDS011;4308;51.294;6.590;2023-07-30T09:48:36;7.80;;;2.97;;
8540;SDS011;4308;51.294;6.590;2023-07-30T09:51:04;6.57;;;2.30;;
8540;SDS011;4308;51.294;6.590;2023-07-30T09:53:31;9.40;;;2.93;;
8540;SDS011;4308;51.294;6.590;2023-07-30T09:56:03;8.27;;;2.60;;
8540;SDS011;4308;51.294;6.590;2023-07-30T09:58:33;7.83;;;2.77;;
8540;SDS011;4308;51.294;6.590;2023-07-30T10:01:01;8.50;;;2.63;;
8540;SDS011;4308;51.294;6.590;2023-07-30T10:03:30;10.63;;;2.60;;
8540;SDS011;4308;51.294;6.590;2023-07-30T10:06:04;9.60;;;2.97;;
8540;SDS011;4308;51.294;6.590;2023-07-30T10:08:34;10.73;;;2.90;;
8540;SDS011;4308;51.294;6.590;2023-07-30T10:11:05;7.47;;;2.80;;
8540;SDS011;4308;51.294;6.590;2023-07-30T10:13:35;8.33;;;2.47;;
8540;SDS011;4308;51.294;6.590;2023-07-30T10:16:08;10.63;;;2.50;;
8540;SDS011;4308;51.294;6.590;2023-07-30T10:18:40;11.07;;;2.50;;
8540;SDS011;4308;51.294;6.590;2023-07-30T10:21:09;7.63;;;2.60;;
8540;SDS011;4308;51.294;6.590;2023-07-30T10:23:58;5.23;;;2.00;;
8540;SDS011;4308;51.294;6.590;2023-07-30T10:26:30;7.30;;;2.13;;
8540;SDS011;4308;51.294;6.590;2023-07-30T10:29:11;6.10;;;1.90;;
8540;SDS011;4308;51.294;6.590;2023-07-30T10:31:39;8.00;;;2.00;;
8540;SDS011;4308;51.294;6.590;2023-07-30T10:34:08;9.27;;;2.67;;
8540;SDS011;4308;51.294;6.590;2023-07-30T10:36:40;10.83;;;2.30;;
8540;SDS011;4308;51.294;6.590;2023-07-30T10:41:45;5.63;;;1.90;;
8540;SDS011;4308;51.294;6.590;2023-07-30T10:44:18;5.03;;;1.90;;
8540;SDS011;4308;51.294;6.590;2023-07-30T10:46:58;7.93;;;2.30;;
8540;SDS011;4308;51.294;6.590;2023-07-30T10:49:27;6.80;;;2.13;;
8540;SDS011;4308;51.294;6.590;2023-07-30T10:51:57;7.90;;;2.37;;
8540;SDS011;4308;51.294;6.590;2023-07-30T10:54:27;8.17;;;2.37;;
8540;SDS011;4308;51.294;6.590;2023-07-30T10:57:03;5.77;;;2.10;;
8540;SDS011;4308;51.294;6.590;2023-07-30T10:59:34;5.47;;;2.13;;
8540;SDS011;4308;51.294;6.590;2023-07-30T11:02:02;10.13;;;2.43;;
8540;SDS011;4308;51.294;6.590;2023-07-30T11:04:33;11.87;;;2.67;;
8540;SDS011;4308;51.294;6.590;2023-07-30T11:07:02;9.33;;;2.27;;
8540;SDS011;4308;51.294;6.590;2023-07-30T11:09:29;6.17;;;2.30;;
8540;SDS011;4308;51.294;6.590;2023-07-30T11:11:56;6.47;;;2.23;;
8540;SDS011;4308;51.294;6.590;2023-07-30T11:14:24;8.30;;;2.30;;
8540;SDS011;4308;51.294;6.590;2023-07-30T11:16:53;4.90;;;2.10;;
8540;SDS011;4308;51.294;6.590;2023-07-30T11:19:28;5.00;;;1.80;;
8540;SDS011;4308;51.294;6.590;2023-07-30T11:21:56;7.30;;;2.47;;
8540;SDS011;4308;51.294;6.590;2023-07-30T11:24:34;9.03;;;2.50;;
8540;SDS011;4308;51.294;6.590;2023-07-30T11:27:02;7.17;;;2.20;;
8540;SDS011;4308;51.294;6.590;2023-07-30T11:29:30;8.07;;;2.20;;
8540;SDS011;4308;51.294;6.590;2023-07-30T11:31:59;8.43;;;2.13;;
8540;SDS011;4308;51.294;6.590;2023-07-30T11:34:26;5.30;;;2.00;;
8540;SDS011;4308;51.294;6.590;2023-07-30T11:36:55;5.43;;;2.03;;
8540;SDS011;4308;51.294;6.590;2023-07-30T11:39:23;6.67;;;2.20;;
8540;SDS011;4308;51.294;6.590;2023-07-30T11:41:51;6.30;;;1.70;;
8540;SDS011;4308;51.294;6.590;2023-07-30T11:44:37;9.57;;;1.83;;
8540;SDS011;4308;51.294;6.590;2023-07-30T11:47:06;4.67;;;1.90;;
8540;SDS011;4308;51.294;6.590;2023-07-30T11:49:34;3.80;;;1.30;;
8540;SDS011;4308;51.294;6.590;2023-07-30T11:52:08;7.30;;;1.93;;
8540;SDS011;4308;51.294;6.590;2023-07-30T11:54:36;6.00;;;1.80;;
8540;SDS011;4308;51.294;6.590;2023-07-30T11:57:04;4.07;;;1.77;;
8540;SDS011;4308;51.294;6.590;2023-07-30T11:59:31;4.07;;;1.70;;
8540;SDS011;4308;51.294;6.590;2023-07-30T12:01:59;5.07;;;1.50;;
8540;SDS011;4308;51.294;6.590;2023-07-30T12:04:30;7.77;;;1.80;;
8540;SDS011;4308;51.294;6.590;2023-07-30T12:07:09;4.90;;;1.70;;
8540;SDS011;4308;51.294;6.590;2023-07-30T12:09:37;4.10;;;1.43;;
8540;SDS011;4308;51.294;6.590;2023-07-30T12:12:04;4.73;;;1.30;;
8540;SDS011;4308;51.294;6.590;2023-07-30T12:17:17;4.70;;;1.37;;
8540;SDS011;4308;51.294;6.590;2023-07-30T12:19:45;4.90;;;1.40;;
8540;SDS011;4308;51.294;6.590;2023-07-30T12:22:12;5.07;;;1.70;;
8540;SDS011;4308;51.294;6.590;2023-07-30T12:24:40;4.20;;;1.70;;
8540;SDS011;4308;51.294;6.590;2023-07-30T12:27:07;5.80;;;1.53;;
8540;SDS011;4308;51.294;6.590;2023-07-30T12:29:35;7.80;;;1.63;;
8540;SDS011;4308;51.294;6.590;2023-07-30T12:32:02;4.50;;;1.70;;
8540;SDS011;4308;51.294;6.590;2023-07-30T12:34:30;4.20;;;1.40;;
8540;SDS011;4308;51.294;6.590;2023-07-30T12:36:58;4.80;;;1.83;;
8540;SDS011;4308;51.294;6.590;2023-07-30T12:39:25;4.70;;;1.57;;
8540;SDS011;4308;51.294;6.590;2023-07-30T12:41:53;6.03;;;2.13;;
8540;SDS011;4308;51.294;6.590;2023-07-30T12:44:20;7.10;;;1.80;;
8540;SDS011;4308;51.294;6.590;2023-07-30T12:46:47;4.60;;;1.70;;
8540;SDS011;4308;51.294;6.590;2023-07-30T12:49:14;5.93;;;1.57;;
8540;SDS011;4308;51.294;6.590;2023-07-30T12:51:42;5.33;;;1.80;;
8540;SDS011;4308;51.294;6.590;2023-07-30T12:54:09;3.77;;;1.23;;
8540;SDS011;4308;51.294;6.590;2023-07-30T12:56:37;5.90;;;1.70;;
8540;SDS011;4308;51.294;6.590;2023-07-30T12:59:04;3.60;;;1.80;;
8540;SDS011;4308;51.294;6.590;2023-07-30T13:01:35;4.53;;;1.70;;
8540;SDS011;4308;51.294;6.590;2023-07-30T13:04:07;6.60;;;1.47;;
8540;SDS011;4308;51.294;6.590;2023-07-30T13:06:34;6.70;;;1.80;;
8540;SDS011;4308;51.294;6.590;2023-07-30T13:09:02;3.33;;;1.53;;
8540;SDS011;4308;51.294;6.590;2023-07-30T13:11:29;3.67;;;1.50;;
8540;SDS011;4308;51.294;6.590;2023-07-30T13:13:57;4.47;;;1.60;;
8540;SDS011;4308;51.294;6.590;2023-07-30T13:16:24;5.67;;;1.43;;
8540;SDS011;4308;51.294;6.590;2023-07-30T13:18:51;6.87;;;1.80;;
8540;SDS011;4308;51.294;6.590;2023-07-30T13:21:19;6.63;;;1.83;;
8540;SDS011;4308;51.294;6.590;2023-07-30T13:23:46;5.43;;;1.90;;
8540;SDS011;4308;51.294;6.590;2023-07-30T13:26:13;4.63;;;2.03;;
8540;SDS011;4308;51.294;6.590;2023-07-30T13:28:40;5.60;;;1.83;;
8540;SDS011;4308;51.294;6.590;2023-07-30T13:31:08;3.57;;;1.60;;
8540;SDS011;4308;51.294;6.590;2023-07-30T13:33:35;4.77;;;1.80;;
8540;SDS011;4308;51.294;6.590;2023-07-30T13:36:03;4.67;;;1.77;;
8540;SDS011;4308;51.294;6.590;2023-07-30T13:38:31;4.63;;;2.00;;
8540;SDS011;4308;51.294;6.590;2023-07-30T13:40:59;5.67;;;1.87;;
8540;SDS011;4308;51.294;6.590;2023-07-30T13:43:26;5.60;;;2.87;;
8540;SDS011;4308;51.294;6.590;2023-07-30T13:45:54;5.53;;;2.23;;
8540;SDS011;4308;51.294;6.590;2023-07-30T13:48:21;5.77;;;2.10;;
8540;SDS011;4308;51.294;6.590;2023-07-30T13:50:49;4.23;;;2.00;;
8540;SDS011;4308;51.294;6.590;2023-07-30T13:53:19;5.60;;;2.10;;
8540;SDS011;4308;51.294;6.590;2023-07-30T13:55:46;4.80;;;1.97;;
8540;SDS011;4308;51.294;6.590;2023-07-30T13:58:14;5.47;;;1.77;;
8540;SDS011;4308;51.294;6.590;2023-07-30T14:00:41;4.77;;;1.87;;
8540;SDS011;4308;51.294;6.590;2023-07-30T14:03:09;9.27;;;2.97;;
8540;SDS011;4308;51.294;6.590;2023-07-30T14:05:37;9.27;;;3.00;;
8540;SDS011;4308;51.294;6.590;2023-07-30T14:08:06;7.33;;;2.50;;
8540;SDS011;4308;51.294;6.590;2023-07-30T14:10:33;7.50;;;1.93;;
8540;SDS011;4308;51.294;6.590;2023-07-30T14:13:01;6.20;;;2.23;;
8540;SDS011;4308;51.294;6.590;2023-07-30T14:15:28;7.40;;;1.90;;
8540;SDS011;4308;51.294;6.590;2023-07-30T14:17:55;3.77;;;1.70;;
8540;SDS011;4308;51.294;6.590;2023-07-30T14:20:23;5.97;;;1.80;;
8540;SDS011;4308;51.294;6.590;2023-07-30T14:22:50;6.03;;;1.93;;
8540;SDS011;4308;51.294;6.590;2023-07-30T14:25:20;4.83;;;1.80;;
8540;SDS011;4308;51.294;6.590;2023-07-30T14:27:47;5.10;;;2.10;;
8540;SDS011;4308;51.294;6.590;2023-07-30T14:30:15;4.87;;;1.90;;
8540;SDS011;4308;51.294;6.590;2023-07-30T14:32:42;6.87;;;1.77;;
8540;SDS011;4308;51.294;6.590;2023-07-30T14:35:09;8.20;;;2.10;;
8540;SDS011;4308;51.294;6.590;2023-07-30T14:37:37;5.77;;;1.60;;
8540;SDS011;4308;51.294;6.590;2023-07-30T14:40:04;6.53;;;1.87;;
8540;SDS011;4308;51.294;6.590;2023-07-30T14:42:32;5.93;;;2.07;;
8540;SDS011;4308;51.294;6.590;2023-07-30T14:44:59;7.37;;;1.80;;
8540;SDS011;4308;51.294;6.590;2023-07-30T14:47:27;4.00;;;1.80;;
8540;SDS011;4308;51.294;6.590;2023-07-30T14:49:54;11.57;;;2.20;;
8540;SDS011;4308;51.294;6.590;2023-07-30T14:52:21;4.77;;;1.50;;
8540;SDS011;4308;51.294;6.590;2023-07-30T14:54:49;5.50;;;1.60;;
8540;SDS011;4308;51.294;6.590;2023-07-30T14:57:16;6.23;;;1.87;;
8540;SDS011;4308;51.294;6.590;2023-07-30T14:59:44;6.50;;;1.60;;
8540;SDS011;4308;51.294;6.590;2023-07-30T15:02:11;5.10;;;1.83;;
8540;SDS011;4308;51.294;6.590;2023-07-30T15:04:38;6.33;;;2.00;;
8540;SDS011;4308;51.294;6.590;2023-07-30T15:07:06;5.00;;;1.97;;
8540;SDS011;4308;51.294;6.590;2023-07-30T15:09:34;5.10;;;1.83;;
8540;SDS011;4308;51.294;6.590;2023-07-30T15:12:01;6.40;;;1.70;;
8540;SDS011;4308;51.294;6.590;2023-07-30T15:14:29;6.17;;;1.80;;
8540;SDS011;4308;51.294;6.590;2023-07-30T15:16:56;4.50;;;1.93;;
8540;SDS011;4308;51.294;6.590;2023-07-30T15:19:24;5.93;;;1.60;;
8540;SDS011;4308;51.294;6.590;2023-07-30T15:21:51;5.10;;;1.50;;
8540;SDS011;4308;51.294;6.590;2023-07-30T15:24:18;2.83;;;1.40;;
8540;SDS011;4308;51.294;6.590;2023-07-30T15:26:46;3.70;;;1.50;;